Knossos Palace — SYQO — position and weather

sailwx.info

Track history (hours):
 
Tides and Currents Weather Stations Pressure Air Temp Water Temp Dewpoint Dewpoint Depression Visibility Wind Speed Wind Dir Waves Ship Positions

Knossos Palace

Last reported at 2015-Mar-06 20:22 UTC. Time now 2015-Mar-07 01:43 UTC.
Position N 37°36' E 023°44'.

Length 214 m; beam 26.4 m; draft 7.3 m.

Type: Ship. MMSI: 237641000.

Date/timePositionNaut miles runAvg speedWind from/ knotsBaromVisibWave heightAir tempDewpointWater temp
2015-Mar-06 20:22N 37°36' E 023°44'1519.0
2015-Mar-06 19:33N 37°50' E 023°36'7 6.6
2015-Mar-06 18:33N 37°57' E 023°38'0 0.0
2015-Mar-06 17:34N 37°57' E 023°38'0 0.0
2015-Mar-06 16:31N 37°57' E 023°38'0 0.0
2015-Mar-06 15:34N 37°57' E 023°38'0 0.0
2015-Mar-06 14:34N 37°57' E 023°38'0 0.0
2015-Mar-06 13:28N 37°57' E 023°38'0 0.0
2015-Mar-06 12:34N 37°57' E 023°38'0 0.0
2015-Mar-06 11:34N 37°57' E 023°38'0 0.0
2015-Mar-06 10:34N 37°57' E 023°38'0 0.0
2015-Mar-06 09:34N 37°57' E 023°38'0 0.0
2015-Mar-06 08:33N 37°57' E 023°38'0 0.0
2015-Mar-06 07:33N 37°57' E 023°38'0 0.0
2015-Mar-06 06:33N 37°57' E 023°38'0 0.0
2015-Mar-06 05:30N 37°57' E 023°38'0 0.1
2015-Mar-06 04:34N 37°56' E 023°38'1615.8
2015-Mar-06 03:33N 37°42' E 023°45'10 0.3
2015-Mar-04 20:25N 37°32' E 023°46'1719.8
2015-Mar-04 19:33N 37°48' E 023°38'9 8.7
2015-Mar-04 18:33N 37°57' E 023°38'0 0.0
2015-Mar-04 17:31N 37°57' E 023°38'0 0.0
2015-Mar-04 16:31N 37°57' E 023°38'0 0.0
2015-Mar-04 15:31N 37°57' E 023°38'0 0.0
2015-Mar-04 14:31N 37°57' E 023°38'0 0.0
2015-Mar-04 13:31N 37°57' E 023°38'0 0.0
2015-Mar-04 12:31N 37°57' E 023°38'0 0.0
2015-Mar-04 11:31N 37°57' E 023°38'0 0.0
2015-Mar-04 10:31N 37°57' E 023°38'0 0.0
2015-Mar-04 09:31N 37°57' E 023°38'0 0.0
2015-Mar-04 08:31N 37°57' E 023°38'0 0.0
2015-Mar-04 07:31N 37°57' E 023°38'0 0.0
2015-Mar-04 06:31N 37°57' E 023°38'0 0.0
2015-Mar-04 05:31N 37°57' E 023°38'0 0.1
2015-Mar-04 04:33N 37°56' E 023°38'1717.0
2015-Mar-04 03:34N 37°40' E 023°45'8 0.3
2015-Mar-02 20:31N 37°33' E 023°46'1919.7
2015-Mar-02 19:33N 37°50' E 023°37'7 6.6
2015-Mar-02 18:33N 37°57' E 023°38'0 0.0
2015-Mar-02 17:33N 37°57' E 023°38'0 0.0
2015-Mar-02 16:33N 37°57' E 023°38'0 0.0
2015-Mar-02 15:33N 37°57' E 023°38'0 0.0
2015-Mar-02 14:33N 37°57' E 023°38'0 0.0
2015-Mar-02 13:33N 37°57' E 023°38'0 0.0
2015-Mar-02 12:33N 37°57' E 023°38'0 0.0
2015-Mar-02 11:33N 37°57' E 023°38'0 0.0
2015-Mar-02 10:33N 37°57' E 023°38'0 0.0
2015-Mar-02 09:33N 37°57' E 023°38'0 0.0
2015-Mar-02 08:33N 37°57' E 023°38'0 0.0
2015-Mar-02 06:22N 37°57' E 023°38'0 0.0
2015-Mar-02 05:33N 37°57' E 023°38'0 0.0
2015-Mar-02 04:33N 37°57' E 023°38'1414.3
2015-Mar-02 03:33N 37°43' E 023°45'11 0.3
2015-Feb-28 20:30N 37°33' E 023°46'1819.3
2015-Feb-28 19:34N 37°49' E 023°38'7 7.2
2015-Feb-28 18:34N 37°57' E 023°38'0 0.0
2015-Feb-28 17:31N 37°57' E 023°38'0 0.0
2015-Feb-28 16:31N 37°57' E 023°38'0 0.0
2015-Feb-28 15:28N 37°57' E 023°38'0 0.0
2015-Feb-28 14:31N 37°57' E 023°38'0 0.0
2015-Feb-28 13:31N 37°57' E 023°38'0 0.0
2015-Feb-28 12:31N 37°57' E 023°38'0 0.0
2015-Feb-28 11:31N 37°57' E 023°38'0 0.0
2015-Feb-28 10:31N 37°57' E 023°38'0 0.0
2015-Feb-28 09:28N 37°57' E 023°38'0 0.0
2015-Feb-28 08:31N 37°57' E 023°38'0 0.0
2015-Feb-28 07:31N 37°57' E 023°38'0 0.0
2015-Feb-28 06:31N 37°57' E 023°38'0 0.0
2015-Feb-28 05:31N 37°57' E 023°38'1 1.5
2015-Feb-28 04:34N 37°55' E 023°37'1919.2
2015-Feb-28 03:33N 37°38' E 023°47'5 0.2
2015-Feb-26 20:32N 37°32' E 023°46'1919.4
2015-Feb-26 19:33N 37°50' E 023°38'7 6.6
2015-Feb-26 18:33N 37°57' E 023°38'0 0.0
2015-Feb-26 17:33N 37°57' E 023°38'0 0.0
2015-Feb-26 16:33N 37°57' E 023°38'0 0.0
2015-Feb-26 15:30N 37°57' E 023°38'0 0.0
2015-Feb-26 14:33N 37°57' E 023°38'0 0.0
2015-Feb-26 13:33N 37°57' E 023°38'0 0.0
2015-Feb-26 12:33N 37°57' E 023°38'0 0.0
2015-Feb-26 11:30N 37°57' E 023°38'0 0.0
2015-Feb-26 10:33N 37°57' E 023°38'0 0.0
2015-Feb-26 09:33N 37°57' E 023°38'0 0.0
2015-Feb-26 07:32N 37°57' E 023°38'0 0.0
2015-Feb-26 06:32N 37°57' E 023°38'0 0.0
2015-Feb-26 05:32N 37°57' E 023°38'0 0.1
2015-Feb-26 04:33N 37°57' E 023°38'1515.2
2015-Feb-26 03:33N 37°42' E 023°45'10 0.3
2015-Feb-24 20:26N 37°32' E 023°46'  
Track history (hours):
 
Tides and Currents Weather Stations Pressure Air Temp Water Temp Dewpoint Dewpoint Depression Visibility Wind Speed Wind Dir Waves Ship Positions

Knossos Palace

Last reported at 2015-Mar-06 20:22 UTC. Time now 2015-Mar-07 01:43 UTC.
Position N 37°36' E 023°44'.

Length 214 m; beam 26.4 m; draft 7.3 m.

Type: Ship. MMSI: 237641000.

Date/timePositionNaut miles runAvg speedWind from/ knotsBaromVisibWave heightAir tempDewpointWater temp
2015-Mar-06 20:22N 37°36' E 023°44'1519.0
2015-Mar-06 19:33N 37°50' E 023°36'7 6.6
2015-Mar-06 18:33N 37°57' E 023°38'0 0.0
2015-Mar-06 17:34N 37°57' E 023°38'0 0.0
2015-Mar-06 16:31N 37°57' E 023°38'0 0.0
2015-Mar-06 15:34N 37°57' E 023°38'0 0.0
2015-Mar-06 14:34N 37°57' E 023°38'0 0.0
2015-Mar-06 13:28N 37°57' E 023°38'0 0.0
2015-Mar-06 12:34N 37°57' E 023°38'0 0.0
2015-Mar-06 11:34N 37°57' E 023°38'0 0.0
2015-Mar-06 10:34N 37°57' E 023°38'0 0.0
2015-Mar-06 09:34N 37°57' E 023°38'0 0.0
2015-Mar-06 08:33N 37°57' E 023°38'0 0.0
2015-Mar-06 07:33N 37°57' E 023°38'0 0.0
2015-Mar-06 06:33N 37°57' E 023°38'0 0.0
2015-Mar-06 05:30N 37°57' E 023°38'0 0.1
2015-Mar-06 04:34N 37°56' E 023°38'1615.8
2015-Mar-06 03:33N 37°42' E 023°45'10 0.3
2015-Mar-04 20:25N 37°32' E 023°46'1719.8
2015-Mar-04 19:33N 37°48' E 023°38'9 8.7
2015-Mar-04 18:33N 37°57' E 023°38'0 0.0
2015-Mar-04 17:31N 37°57' E 023°38'0 0.0
2015-Mar-04 16:31N 37°57' E 023°38'0 0.0
2015-Mar-04 15:31N 37°57' E 023°38'0 0.0
2015-Mar-04 14:31N 37°57' E 023°38'0 0.0
2015-Mar-04 13:31N 37°57' E 023°38'0 0.0
2015-Mar-04 12:31N 37°57' E 023°38'0 0.0
2015-Mar-04 11:31N 37°57' E 023°38'0 0.0
2015-Mar-04 10:31N 37°57' E 023°38'0 0.0
2015-Mar-04 09:31N 37°57' E 023°38'0 0.0
2015-Mar-04 08:31N 37°57' E 023°38'0 0.0
2015-Mar-04 07:31N 37°57' E 023°38'0 0.0
2015-Mar-04 06:31N 37°57' E 023°38'0 0.0
2015-Mar-04 05:31N 37°57' E 023°38'0 0.1
2015-Mar-04 04:33N 37°56' E 023°38'1717.0
2015-Mar-04 03:34N 37°40' E 023°45'8 0.3
2015-Mar-02 20:31N 37°33' E 023°46'1919.7
2015-Mar-02 19:33N 37°50' E 023°37'7 6.6
2015-Mar-02 18:33N 37°57' E 023°38'0 0.0
2015-Mar-02 17:33N 37°57' E 023°38'0 0.0
2015-Mar-02 16:33N 37°57' E 023°38'0 0.0
2015-Mar-02 15:33N 37°57' E 023°38'0 0.0
2015-Mar-02 14:33N 37°57' E 023°38'0 0.0
2015-Mar-02 13:33N 37°57' E 023°38'0 0.0
2015-Mar-02 12:33N 37°57' E 023°38'0 0.0
2015-Mar-02 11:33N 37°57' E 023°38'0 0.0
2015-Mar-02 10:33N 37°57' E 023°38'0 0.0
2015-Mar-02 09:33N 37°57' E 023°38'0 0.0
2015-Mar-02 08:33N 37°57' E 023°38'0 0.0
2015-Mar-02 06:22N 37°57' E 023°38'0 0.0
2015-Mar-02 05:33N 37°57' E 023°38'0 0.0
2015-Mar-02 04:33N 37°57' E 023°38'1414.3
2015-Mar-02 03:33N 37°43' E 023°45'11 0.3
2015-Feb-28 20:30N 37°33' E 023°46'1819.3
2015-Feb-28 19:34N 37°49' E 023°38'7 7.2
2015-Feb-28 18:34N 37°57' E 023°38'0 0.0
2015-Feb-28 17:31N 37°57' E 023°38'0 0.0
2015-Feb-28 16:31N 37°57' E 023°38'0 0.0
2015-Feb-28 15:28N 37°57' E 023°38'0 0.0
2015-Feb-28 14:31N 37°57' E 023°38'0 0.0
2015-Feb-28 13:31N 37°57' E 023°38'0 0.0
2015-Feb-28 12:31N 37°57' E 023°38'0 0.0
2015-Feb-28 11:31N 37°57' E 023°38'0 0.0
2015-Feb-28 10:31N 37°57' E 023°38'0 0.0
2015-Feb-28 09:28N 37°57' E 023°38'0 0.0
2015-Feb-28 08:31N 37°57' E 023°38'0 0.0
2015-Feb-28 07:31N 37°57' E 023°38'0 0.0
2015-Feb-28 06:31N 37°57' E 023°38'0 0.0
2015-Feb-28 05:31N 37°57' E 023°38'1 1.5
2015-Feb-28 04:34N 37°55' E 023°37'1919.2
2015-Feb-28 03:33N 37°38' E 023°47'5 0.2
2015-Feb-26 20:32N 37°32' E 023°46'1919.4
2015-Feb-26 19:33N 37°50' E 023°38'7 6.6
2015-Feb-26 18:33N 37°57' E 023°38'0 0.0
2015-Feb-26 17:33N 37°57' E 023°38'0 0.0
2015-Feb-26 16:33N 37°57' E 023°38'0 0.0
2015-Feb-26 15:30N 37°57' E 023°38'0 0.0
2015-Feb-26 14:33N 37°57' E 023°38'0 0.0
2015-Feb-26 13:33N 37°57' E 023°38'0 0.0
2015-Feb-26 12:33N 37°57' E 023°38'0 0.0
2015-Feb-26 11:30N 37°57' E 023°38'0 0.0
2015-Feb-26 10:33N 37°57' E 023°38'0 0.0
2015-Feb-26 09:33N 37°57' E 023°38'0 0.0
2015-Feb-26 07:32N 37°57' E 023°38'0 0.0
2015-Feb-26 06:32N 37°57' E 023°38'0 0.0
2015-Feb-26 05:32N 37°57' E 023°38'0 0.1
2015-Feb-26 04:33N 37°57' E 023°38'1515.2
2015-Feb-26 03:33N 37°42' E 023°45'10 0.3
2015-Feb-24 20:26N 37°32' E 023°46'  

Dump ship's entire track history